createdAt,value
2018-10-01T00:01:00.197Z,0
2018-10-01T00:02:09.103Z,0
2018-10-01T00:03:18.681Z,0
2018-10-01T00:04:27.797Z,0
2018-10-01T00:05:36.721Z,0
2018-10-01T00:06:46.121Z,0
2018-10-01T00:07:55.556Z,0
2018-10-01T00:09:04.970Z,0
2018-10-01T00:10:14.653Z,0
2018-10-01T00:11:24.334Z,0
2018-10-01T00:12:33.748Z,0
2018-10-01T00:13:42.650Z,0
2018-10-01T00:14:52.076Z,0
2018-10-01T00:16:01.819Z,0
2018-10-01T00:17:10.982Z,0
2018-10-01T00:18:20.143Z,0
2018-10-01T00:19:29.562Z,0
2018-10-01T00:20:38.714Z,0
2018-10-01T00:21:48.142Z,0
2018-10-01T00:22:57.565Z,0
2018-10-01T00:24:07.242Z,0
2018-10-01T00:25:16.699Z,0
2018-10-01T00:26:26.360Z,0
2018-10-01T00:27:35.795Z,0
2018-10-01T00:28:45.469Z,0
2018-10-01T00:29:54.878Z,0
2018-10-01T00:31:03.781Z,0
2018-10-01T00:32:13.206Z,0
2018-10-01T00:33:22.620Z,0
2018-10-01T00:34:32.348Z,0
2018-10-01T00:35:42.102Z,0
2018-10-01T00:36:51.846Z,0
2018-10-01T00:38:01.828Z,0
2018-10-01T00:39:11.035Z,0
2018-10-01T00:40:21.033Z,0
2018-10-01T00:41:30.449Z,0
2018-10-01T00:42:40.121Z,0
2018-10-01T00:43:49.288Z,0
2018-10-01T00:44:58.187Z,0
2018-10-01T00:46:07.597Z,0
2018-10-01T00:47:16.761Z,0
2018-10-01T00:48:26.165Z,0
2018-10-01T00:49:36.106Z,0
2018-10-01T00:50:45.531Z,0
2018-10-01T00:51:54.954Z,0
2018-10-01T00:53:04.117Z,0
2018-10-01T00:54:13.530Z,0
2018-10-01T00:55:22.689Z,0
2018-10-01T00:56:32.121Z,0
2018-10-01T00:57:41.789Z,0
2018-10-01T00:58:51.758Z,0
2018-10-01T01:00:01.445Z,0
2018-10-01T01:01:10.861Z,0
2018-10-01T01:02:20.297Z,0
2018-10-01T01:03:29.726Z,0
2018-10-01T01:04:39.148Z,0
2018-10-01T01:05:48.555Z,0
2018-10-01T01:06:57.753Z,0
2018-10-01T01:08:06.931Z,0
2018-10-01T01:09:16.607Z,0
2018-10-01T01:10:26.050Z,0
2018-10-01T01:11:35.206Z,0
2018-10-01T01:12:44.366Z,0
2018-10-01T01:13:54.062Z,0
2018-10-01T01:15:03.753Z,0
2018-10-01T01:16:12.666Z,0
2018-10-01T01:17:22.330Z,0
2018-10-01T01:18:32.262Z,0
2018-10-01T01:19:41.688Z,0
2018-10-01T01:20:50.857Z,0
2018-10-01T01:21:59.750Z,0
2018-10-01T01:23:08.662Z,0
2018-10-01T01:24:17.865Z,0
2018-10-01T01:25:27.010Z,0
2018-10-01T01:26:36.682Z,0
2018-10-01T01:27:46.613Z,0
2018-10-01T01:28:55.779Z,0
2018-10-01T01:30:04.679Z,0
2018-10-01T01:31:13.835Z,0
2018-10-01T01:32:23.251Z,0
2018-10-01T01:33:32.410Z,0
2018-10-01T01:34:41.576Z,0
2018-10-01T01:35:50.730Z,0
2018-10-01T01:37:00.410Z,0
2018-10-01T01:38:09.850Z,0
2018-10-01T01:39:19.548Z,0
2018-10-01T01:40:28.774Z,0
2018-10-01T01:41:38.451Z,0
2018-10-01T01:42:47.637Z,0
2018-10-01T01:43:56.796Z,0
2018-10-01T01:45:05.976Z,0
2018-10-01T01:46:15.143Z,0
2018-10-01T01:47:25.282Z,0
2018-10-01T01:48:34.198Z,0
2018-10-01T01:49:43.892Z,0
2018-10-01T01:50:53.577Z,0
2018-10-01T01:52:03.006Z,0
2018-10-01T01:53:12.447Z,0
2018-10-01T01:54:22.127Z,0
2018-10-01T01:55:31.299Z,0
2018-10-01T01:56:40.212Z,0
2018-10-01T01:57:49.888Z,0
2018-10-01T01:58:59.307Z,0
2018-10-01T02:00:08.741Z,0
2018-10-01T02:01:18.421Z,0
2018-10-01T02:02:28.096Z,0
2018-10-01T02:03:37.247Z,0
2018-10-01T02:04:46.412Z,0
2018-10-01T02:05:55.825Z,0
2018-10-01T02:07:05.260Z,0
2018-10-01T02:08:14.667Z,0
2018-10-01T02:09:24.352Z,0
2018-10-01T02:10:33.788Z,0
2018-10-01T02:11:43.199Z,0
2018-10-01T02:12:52.360Z,0
2018-10-01T02:14:01.789Z,0
2018-10-01T02:15:11.455Z,0
2018-10-01T02:16:20.873Z,0
2018-10-01T02:17:30.044Z,0
2018-10-01T02:18:39.210Z,0
2018-10-01T02:19:48.642Z,0
2018-10-01T02:20:57.816Z,0
2018-10-01T02:22:06.709Z,0
2018-10-01T02:23:16.565Z,0
2018-10-01T02:24:25.974Z,0
2018-10-01T02:25:35.409Z,0
2018-10-01T02:26:44.572Z,0
2018-10-01T02:27:53.994Z,0
2018-10-01T02:29:03.927Z,0
2018-10-01T02:30:13.611Z,0
2018-10-01T02:31:23.300Z,0
2018-10-01T02:32:32.463Z,0
2018-10-01T02:33:41.620Z,0
2018-10-01T02:34:51.040Z,0
2018-10-01T02:36:00.457Z,0
2018-10-01T02:37:09.883Z,0
2018-10-01T02:38:19.049Z,0
2018-10-01T02:39:28.225Z,0
2018-10-01T02:40:37.652Z,0
2018-10-01T02:41:47.587Z,0
2018-10-01T02:42:56.999Z,0
2018-10-01T02:44:06.689Z,0
2018-10-01T02:45:16.127Z,0
2018-10-01T02:46:25.840Z,0
2018-10-01T02:47:35.409Z,0
2018-10-01T02:48:45.136Z,0
2018-10-01T02:49:54.797Z,0
2018-10-01T02:51:04.739Z,0
2018-10-01T02:52:14.434Z,0
2018-10-01T02:53:24.375Z,0
2018-10-01T02:54:34.050Z,0
2018-10-01T02:55:43.491Z,0
2018-10-01T02:56:52.929Z,0
2018-10-01T02:58:02.111Z,0
2018-10-01T02:59:11.802Z,0
2018-10-01T03:00:20.719Z,0
2018-10-01T03:01:29.887Z,0
2018-10-01T03:02:39.301Z,0
2018-10-01T03:03:48.469Z,0
2018-10-01T03:04:57.627Z,0
2018-10-01T03:06:06.796Z,0
2018-10-01T03:07:16.478Z,0
2018-10-01T03:08:26.160Z,0
2018-10-01T03:09:35.648Z,0
2018-10-01T03:10:45.572Z,0
2018-10-01T03:11:55.231Z,0
2018-10-01T03:13:04.657Z,0
2018-10-01T03:14:14.340Z,0
2018-10-01T03:15:23.773Z,0
2018-10-01T03:16:33.487Z,0
2018-10-01T03:17:43.169Z,0
2018-10-01T03:18:53.115Z,0
2018-10-01T03:20:03.041Z,0
2018-10-01T03:21:12.049Z,0
2018-10-01T03:22:21.813Z,0
2018-10-01T03:23:31.488Z,0
2018-10-01T03:24:41.203Z,0
2018-10-01T03:25:50.652Z,0
2018-10-01T03:27:00.360Z,0
2018-10-01T03:28:09.808Z,0
2018-10-01T03:29:18.972Z,0
2018-10-01T03:30:28.160Z,0
2018-10-01T03:31:37.601Z,0
2018-10-01T03:32:47.302Z,0
2018-10-01T03:33:56.523Z,0
2018-10-01T03:35:06.191Z,0
2018-10-01T03:36:15.857Z,0
2018-10-01T03:37:25.798Z,0
2018-10-01T03:38:35.214Z,0
2018-10-01T03:39:45.150Z,0
2018-10-01T03:40:55.092Z,0
2018-10-01T03:42:04.782Z,0
2018-10-01T03:43:14.213Z,0
2018-10-01T03:44:23.645Z,0
2018-10-01T03:45:33.577Z,0
2018-10-01T03:46:43.247Z,0
2018-10-01T03:47:52.694Z,0
2018-10-01T03:49:02.125Z,0
2018-10-01T03:50:11.564Z,0
2018-10-01T03:51:20.989Z,0
2018-10-01T03:52:30.669Z,0
2018-10-01T03:53:40.087Z,0
2018-10-01T03:54:49.525Z,0
2018-10-01T03:55:58.975Z,0
2018-10-01T03:57:09.084Z,0
2018-10-01T03:58:18.493Z,0
2018-10-01T03:59:27.950Z,0
2018-10-01T04:00:37.371Z,0
2018-10-01T04:01:47.301Z,0
2018-10-01T04:02:56.601Z,0
2018-10-01T04:04:06.160Z,0
2018-10-01T04:05:15.322Z,0
2018-10-01T04:06:24.738Z,0
2018-10-01T04:07:33.901Z,0
2018-10-01T04:08:43.164Z,0
2018-10-01T04:09:52.968Z,0
2018-10-01T04:11:02.653Z,0
2018-10-01T04:12:12.317Z,0
2018-10-01T04:13:21.998Z,0
2018-10-01T04:14:31.429Z,0
2018-10-01T04:15:40.888Z,0
2018-10-01T04:16:50.853Z,0
2018-10-01T04:18:00.799Z,0
2018-10-01T04:19:10.725Z,0
2018-10-01T04:20:19.890Z,0
2018-10-01T04:21:29.555Z,0
2018-10-01T04:22:39.767Z,0
2018-10-01T04:23:49.942Z,0
2018-10-01T04:24:59.347Z,0
2018-10-01T04:26:08.757Z,0
2018-10-01T04:27:17.917Z,0
2018-10-01T04:28:27.579Z,0
2018-10-01T04:29:37.258Z,0
2018-10-01T04:30:46.419Z,0
2018-10-01T04:31:56.101Z,0
2018-10-01T04:33:37.365Z,0
2018-10-01T04:35:06.254Z,0
2018-10-01T04:36:15.407Z,0
2018-10-01T04:37:25.363Z,0
2018-10-01T04:38:34.796Z,0
2018-10-01T04:39:43.963Z,0
2018-10-01T04:40:53.893Z,0
2018-10-01T04:42:03.055Z,0
2018-10-01T04:43:12.209Z,0
2018-10-01T04:44:21.622Z,0
2018-10-01T04:45:30.803Z,0
2018-10-01T04:46:40.641Z,0
2018-10-01T04:47:50.029Z,0
2018-10-01T04:48:59.459Z,0
2018-10-01T04:50:08.935Z,0
2018-10-01T04:51:18.376Z,0
2018-10-01T04:52:27.278Z,0
2018-10-01T04:53:36.973Z,0
2018-10-01T04:54:46.165Z,0
2018-10-01T04:55:55.084Z,0
2018-10-01T04:57:05.019Z,0
2018-10-01T04:58:14.987Z,0
2018-10-01T04:59:24.652Z,0
2018-10-01T05:00:33.816Z,0
2018-10-01T05:01:42.972Z,0
2018-10-01T05:02:52.398Z,0
2018-10-01T05:04:01.569Z,0
2018-10-01T05:05:10.981Z,0
2018-10-01T05:06:21.210Z,0
2018-10-01T05:07:30.890Z,0
2018-10-01T05:08:40.611Z,0
2018-10-01T05:09:49.801Z,0
2018-10-01T05:10:58.964Z,0
2018-10-01T05:12:08.145Z,0
2018-10-01T05:13:17.828Z,0
2018-10-01T05:14:27.497Z,0
2018-10-01T05:15:36.917Z,0
2018-10-01T05:16:46.594Z,0
2018-10-01T05:17:56.020Z,0
2018-10-01T05:19:05.703Z,0
2018-10-01T05:20:14.870Z,0
2018-10-01T05:21:24.299Z,0
2018-10-01T05:22:33.223Z,0
2018-10-01T05:23:42.640Z,0
2018-10-01T05:24:52.060Z,0
2018-10-01T05:26:00.965Z,0
2018-10-01T05:27:11.033Z,0
2018-10-01T05:28:20.959Z,0
2018-10-01T05:29:29.909Z,0
2018-10-01T05:30:39.092Z,0
2018-10-01T05:31:48.519Z,0
2018-10-01T05:32:57.684Z,0
2018-10-01T05:34:06.586Z,0
2018-10-01T05:35:15.741Z,0
2018-10-01T05:36:25.148Z,0
2018-10-01T05:37:34.051Z,0
2018-10-01T05:38:42.956Z,0
2018-10-01T05:39:52.110Z,0
2018-10-01T05:41:01.278Z,0
2018-10-01T05:42:10.960Z,0
2018-10-01T05:43:20.411Z,0
2018-10-01T05:44:29.558Z,0
2018-10-01T05:45:39.002Z,0
2018-10-01T05:46:48.433Z,0
2018-10-01T05:47:57.596Z,0
2018-10-01T05:49:07.418Z,0
2018-10-01T05:50:16.920Z,0
2018-10-01T05:51:26.344Z,0
2018-10-01T05:52:36.024Z,0
2018-10-01T05:53:45.466Z,0
2018-10-01T05:54:54.938Z,0
2018-10-01T05:56:04.942Z,0
2018-10-01T05:57:14.118Z,0
2018-10-01T05:58:23.734Z,0
2018-10-01T05:59:32.910Z,0
2018-10-01T06:00:42.351Z,0
2018-10-01T06:01:52.020Z,0
2018-10-01T06:03:01.436Z,0
2018-10-01T06:04:10.389Z,0
2018-10-01T06:05:19.839Z,0
2018-10-01T06:06:29.506Z,0
2018-10-01T06:07:39.175Z,0
2018-10-01T06:08:48.095Z,0
2018-10-01T06:09:58.466Z,0
2018-10-01T06:11:07.914Z,0
2018-10-01T06:12:17.325Z,0
2018-10-01T06:13:27.254Z,0
2018-10-01T06:14:36.956Z,4
2018-10-01T06:15:46.382Z,0
2018-10-01T06:16:55.830Z,4
2018-10-01T06:18:04.988Z,4
2018-10-01T06:19:13.902Z,0
2018-10-01T06:20:23.578Z,0
2018-10-01T06:21:33.001Z,0
2018-10-01T06:22:41.916Z,0
2018-10-01T06:23:51.059Z,0
2018-10-01T06:25:00.239Z,0
2018-10-01T06:26:09.924Z,0
2018-10-01T06:27:19.084Z,0
2018-10-01T06:28:27.998Z,0
2018-10-01T06:29:37.416Z,0
2018-10-01T06:30:46.647Z,0
2018-10-01T06:31:56.508Z,0
2018-10-01T06:33:05.679Z,0
2018-10-01T06:34:15.376Z,4
2018-10-01T06:35:25.055Z,4
2018-10-01T06:36:34.477Z,4
2018-10-01T06:37:43.925Z,4
2018-10-01T06:38:53.100Z,0
2018-10-01T06:40:02.793Z,4
2018-10-01T06:41:12.472Z,4
2018-10-01T06:42:22.483Z,4
2018-10-01T06:43:32.424Z,4
2018-10-01T06:44:41.873Z,4
2018-10-01T06:45:51.812Z,4
2018-10-01T06:47:01.757Z,0
2018-10-01T06:48:11.704Z,0
2018-10-01T06:49:21.423Z,0
2018-10-01T06:50:30.596Z,0
2018-10-01T06:51:39.749Z,4
2018-10-01T06:52:48.929Z,4
2018-10-01T06:53:58.089Z,4
2018-10-01T06:55:07.511Z,0
2018-10-01T06:56:16.716Z,0
2018-10-01T06:57:26.383Z,4
2018-10-01T06:58:36.079Z,0
2018-10-01T06:59:45.501Z,4
2018-10-01T07:00:54.924Z,4
2018-10-01T07:02:04.336Z,4
2018-10-01T07:03:13.555Z,4
2018-10-01T07:04:22.982Z,4
2018-10-01T07:05:33.224Z,4
2018-10-01T07:06:42.924Z,8
2018-10-01T07:07:51.837Z,4
2018-10-01T07:09:01.597Z,4
2018-10-01T07:10:11.023Z,4
2018-10-01T07:11:21.052Z,4
2018-10-01T07:12:30.308Z,4
2018-10-01T07:13:39.500Z,4
2018-10-01T07:14:48.412Z,4
2018-10-01T07:15:58.100Z,4
2018-10-01T07:17:07.674Z,4
2018-10-01T07:18:17.682Z,4
2018-10-01T07:19:27.373Z,4
2018-10-01T07:20:36.288Z,8
2018-10-01T07:21:45.977Z,8
2018-10-01T07:22:56.084Z,8
2018-10-01T07:24:05.576Z,8
2018-10-01T07:25:15.002Z,8
2018-10-01T07:26:24.430Z,8
2018-10-01T07:27:34.359Z,8
2018-10-01T07:28:43.521Z,12
2018-10-01T07:29:53.193Z,12
2018-10-01T07:31:02.364Z,12
2018-10-01T07:32:12.133Z,12
2018-10-01T07:33:21.048Z,8
2018-10-01T07:34:30.485Z,12
2018-10-01T07:35:39.641Z,12
2018-10-01T07:36:49.062Z,12
2018-10-01T07:37:58.730Z,12
2018-10-01T07:39:08.427Z,12
2018-10-01T07:40:18.085Z,12
2018-10-01T07:41:28.025Z,12
2018-10-01T07:42:37.200Z,16
2018-10-01T07:43:46.925Z,16
2018-10-01T07:44:56.870Z,16
2018-10-01T07:46:06.911Z,16
2018-10-01T07:47:16.806Z,12
2018-10-01T07:48:26.772Z,12
2018-10-01T07:49:36.240Z,16
2018-10-01T07:50:46.306Z,16
2018-10-01T07:51:55.745Z,12
2018-10-01T07:53:05.448Z,12
2018-10-01T07:54:14.621Z,12
2018-10-01T07:55:24.056Z,20
2018-10-01T07:56:33.478Z,20
2018-10-01T07:57:43.016Z,20
2018-10-01T07:58:52.182Z,20
2018-10-01T08:00:03.280Z,20
2018-10-01T08:01:12.850Z,20
2018-10-01T08:02:23.116Z,12
2018-10-01T08:03:32.810Z,12
2018-10-01T08:04:42.512Z,8
2018-10-01T08:05:51.694Z,4
2018-10-01T08:07:01.639Z,12
2018-10-01T08:08:11.528Z,20
2018-10-01T08:09:21.535Z,16
2018-10-01T08:10:30.667Z,16
2018-10-01T08:11:40.357Z,16
2018-10-01T08:12:49.517Z,16
2018-10-01T08:13:59.363Z,16
2018-10-01T08:15:08.535Z,16
2018-10-01T08:16:18.223Z,16
2018-10-01T08:17:28.147Z,16
2018-10-01T08:18:37.834Z,16
2018-10-01T08:19:46.985Z,16
2018-10-01T08:20:56.155Z,16
2018-10-01T08:22:05.572Z,16
2018-10-01T08:23:15.246Z,20
2018-10-01T08:24:24.159Z,16
2018-10-01T08:25:33.837Z,12
2018-10-01T08:26:43.689Z,12
2018-10-01T08:27:52.977Z,16
2018-10-01T08:29:02.789Z,16
2018-10-01T08:30:12.737Z,16
2018-10-01T08:31:21.903Z,16
2018-10-01T08:32:32.071Z,16
2018-10-01T08:33:41.563Z,16
2018-10-01T08:34:50.721Z,16
2018-10-01T08:36:00.405Z,16
2018-10-01T08:37:10.345Z,16
2018-10-01T08:38:19.896Z,20
2018-10-01T08:39:30.194Z,20
2018-10-01T08:40:39.622Z,20
2018-10-01T08:41:48.776Z,24
2018-10-01T08:42:58.510Z,20
2018-10-01T08:44:07.826Z,24
2018-10-01T08:45:17.247Z,12
2018-10-01T08:46:26.677Z,8
2018-10-01T08:47:36.651Z,4
2018-10-01T08:48:45.879Z,8
2018-10-01T08:49:55.085Z,8
2018-10-01T08:51:04.794Z,8
2018-10-01T08:52:14.688Z,28
2018-10-01T08:53:24.610Z,12
2018-10-01T08:54:34.424Z,8
2018-10-01T08:55:43.631Z,8
2018-10-01T08:56:52.792Z,8
2018-10-01T08:58:01.692Z,8
2018-10-01T08:59:11.665Z,8
2018-10-01T09:00:21.208Z,24
2018-10-01T09:01:30.627Z,12
2018-10-01T09:02:40.343Z,16
2018-10-01T09:03:49.727Z,12
2018-10-01T09:04:58.956Z,16
2018-10-01T09:06:08.442Z,16
2018-10-01T09:07:17.617Z,20
2018-10-01T09:08:27.773Z,20
2018-10-01T09:09:37.266Z,28
2018-10-01T09:10:46.702Z,28
2018-10-01T09:11:56.127Z,20
2018-10-01T09:13:05.568Z,8
2018-10-01T09:14:15.207Z,8
2018-10-01T09:15:25.028Z,32
2018-10-01T09:16:34.214Z,32
2018-10-01T09:17:43.470Z,32
2018-10-01T09:18:53.180Z,36
2018-10-01T09:20:03.247Z,8
2018-10-01T09:21:12.856Z,8
2018-10-01T09:22:22.101Z,8
2018-10-01T09:23:32.049Z,8
2018-10-01T09:24:42.060Z,8
2018-10-01T09:25:51.484Z,8
2018-10-01T09:27:00.952Z,8
2018-10-01T09:28:10.390Z,8
2018-10-01T09:29:20.467Z,8
2018-10-01T09:30:29.899Z,28
2018-10-01T09:31:39.324Z,32
2018-10-01T09:32:49.262Z,4
2018-10-01T09:33:59.202Z,4
2018-10-01T09:35:08.730Z,8
2018-10-01T09:36:18.575Z,8
2018-10-01T09:37:27.728Z,8
2018-10-01T09:38:37.550Z,8
2018-10-01T09:39:47.407Z,36
2018-10-01T09:40:57.778Z,36
2018-10-01T09:42:07.394Z,36
2018-10-01T09:43:17.143Z,36
2018-10-01T09:44:26.206Z,32
2018-10-01T09:45:35.769Z,8
2018-10-01T09:46:45.607Z,8
2018-10-01T09:47:55.194Z,12
2018-10-01T09:49:04.200Z,8
2018-10-01T09:50:13.798Z,16
2018-10-01T09:51:22.933Z,16
2018-10-01T09:52:32.989Z,24
2018-10-01T09:53:42.190Z,32
2018-10-01T09:54:51.996Z,36
2018-10-01T09:56:01.792Z,32
2018-10-01T09:57:11.601Z,8
2018-10-01T09:58:21.885Z,8
2018-10-01T09:59:31.311Z,8
2018-10-01T10:00:40.990Z,8
2018-10-01T10:01:50.773Z,12
2018-10-01T10:02:59.945Z,8
2018-10-01T10:04:09.530Z,8
2018-10-01T10:05:19.830Z,12
2018-10-01T10:06:29.257Z,12
2018-10-01T10:07:38.425Z,36
2018-10-01T10:08:48.534Z,12
2018-10-01T10:09:57.978Z,12
2018-10-01T10:11:07.536Z,24
2018-10-01T10:12:17.210Z,28
2018-10-01T10:13:26.631Z,32
2018-10-01T10:14:36.300Z,32
2018-10-01T10:15:46.039Z,12
2018-10-01T10:16:55.969Z,12
2018-10-01T10:18:06.071Z,16
2018-10-01T10:19:15.556Z,28
2018-10-01T10:20:25.633Z,32
2018-10-01T10:21:35.443Z,20
2018-10-01T10:22:44.771Z,12
2018-10-01T10:23:54.188Z,8
2018-10-01T10:25:03.622Z,4
2018-10-01T10:26:13.344Z,8
2018-10-01T10:27:22.906Z,4
2018-10-01T10:28:32.730Z,4
2018-10-01T10:29:42.621Z,8
2018-10-01T10:30:51.779Z,4
2018-10-01T10:32:01.329Z,8
2018-10-01T10:33:11.024Z,8
2018-10-01T10:34:20.781Z,8
2018-10-01T10:35:31.079Z,8
2018-10-01T10:36:40.956Z,12
2018-10-01T10:37:50.386Z,28
2018-10-01T10:39:00.063Z,24
2018-10-01T10:40:09.311Z,24
2018-10-01T10:41:19.056Z,24
2018-10-01T10:42:28.473Z,24
2018-10-01T10:43:37.640Z,24
2018-10-01T10:44:47.317Z,24
2018-10-01T10:45:56.496Z,24
2018-10-01T10:47:05.404Z,24
2018-10-01T10:48:15.057Z,24
2018-10-01T10:49:24.663Z,28
2018-10-01T10:50:34.625Z,28
2018-10-01T10:51:44.443Z,32
2018-10-01T10:52:54.536Z,32
2018-10-01T10:54:03.711Z,32
2018-10-01T10:55:13.401Z,32
2018-10-01T10:56:23.340Z,24
2018-10-01T10:57:32.793Z,16
2018-10-01T10:58:42.479Z,28
2018-10-01T10:59:51.656Z,32
2018-10-01T11:01:01.357Z,28
2018-10-01T11:02:11.336Z,32
2018-10-01T11:03:20.521Z,28
2018-10-01T11:04:29.938Z,28
2018-10-01T11:05:39.622Z,28
2018-10-01T11:06:48.791Z,28
2018-10-01T11:07:58.300Z,28
2018-10-01T11:09:07.703Z,16
2018-10-01T11:10:17.125Z,16
2018-10-01T11:11:26.037Z,8
2018-10-01T11:12:35.963Z,8
2018-10-01T11:13:45.140Z,8
2018-10-01T11:14:55.780Z,20
2018-10-01T11:16:05.462Z,28
2018-10-01T11:17:15.292Z,28
2018-10-01T11:18:25.327Z,28
2018-10-01T11:19:35.744Z,24
2018-10-01T11:20:45.098Z,8
2018-10-01T11:21:55.191Z,8
2018-10-01T11:23:05.390Z,8
2018-10-01T11:24:14.845Z,8
2018-10-01T11:25:24.949Z,8
2018-10-01T11:26:34.555Z,8
2018-10-01T11:27:44.397Z,16
2018-10-01T11:28:54.120Z,16
2018-10-01T11:30:03.751Z,24
2018-10-01T11:31:13.221Z,12
2018-10-01T11:32:22.387Z,16
2018-10-01T11:33:32.676Z,12
2018-10-01T11:34:43.259Z,8
2018-10-01T11:35:53.354Z,16
2018-10-01T11:37:02.786Z,8
2018-10-01T11:38:11.703Z,12
2018-10-01T11:39:21.715Z,12
2018-10-01T11:40:31.773Z,12
2018-10-01T11:41:40.706Z,12
2018-10-01T11:42:50.654Z,12
2018-10-01T11:43:59.623Z,8
2018-10-01T11:45:08.944Z,12
2018-10-01T11:46:18.176Z,8
2018-10-01T11:47:27.593Z,12
2018-10-01T11:48:36.748Z,12
2018-10-01T11:49:45.707Z,8
2018-10-01T11:50:55.184Z,12
2018-10-01T11:52:04.990Z,12
2018-10-01T11:53:14.431Z,16
2018-10-01T11:54:24.371Z,36
2018-10-01T11:55:34.012Z,36
2018-10-01T11:56:43.441Z,20
2018-10-01T11:57:52.986Z,24
2018-10-01T11:59:02.397Z,16
2018-10-01T12:00:11.821Z,12
2018-10-01T12:01:21.515Z,12
2018-10-01T12:02:30.936Z,4
2018-10-01T12:03:40.810Z,4
2018-10-01T12:04:50.283Z,4
2018-10-01T12:05:59.738Z,4
2018-10-01T12:07:09.151Z,4
2018-10-01T12:08:18.594Z,0
2018-10-01T12:09:28.694Z,4
2018-10-01T12:10:39.192Z,4
2018-10-01T12:11:48.742Z,4
2018-10-01T12:12:58.158Z,4
2018-10-01T12:14:07.315Z,4
2018-10-01T12:15:16.708Z,4
2018-10-01T12:16:26.315Z,4
2018-10-01T12:17:35.742Z,4
2018-10-01T12:18:44.894Z,4
2018-10-01T12:19:54.066Z,4
2018-10-01T12:21:04.015Z,4
2018-10-01T12:22:14.281Z,4
2018-10-01T12:23:24.536Z,8
2018-10-01T12:24:33.961Z,4
2018-10-01T12:25:43.380Z,4
2018-10-01T12:26:52.789Z,4
2018-10-01T12:28:01.993Z,4
2018-10-01T12:29:11.619Z,4
2018-10-01T12:30:21.471Z,4
2018-10-01T12:31:31.150Z,8
2018-10-01T12:32:40.308Z,8
2018-10-01T12:33:50.168Z,8
2018-10-01T12:35:00.132Z,12
2018-10-01T12:36:09.627Z,8
2018-10-01T12:37:18.511Z,8
2018-10-01T12:38:27.670Z,8
2018-10-01T12:39:37.281Z,8
2018-10-01T12:40:45.856Z,8
2018-10-01T12:41:55.023Z,8
2018-10-01T12:43:04.661Z,8
2018-10-01T12:44:14.109Z,8
2018-10-01T12:45:23.962Z,8
2018-10-01T12:46:33.167Z,8
2018-10-01T12:47:42.335Z,8
2018-10-01T12:48:52.002Z,8
2018-10-01T12:50:01.430Z,8
2018-10-01T12:51:11.104Z,8
2018-10-01T12:52:21.035Z,8
2018-10-01T12:53:30.469Z,8
2018-10-01T12:54:39.895Z,8
2018-10-01T12:55:49.837Z,8
2018-10-01T12:56:59.335Z,12
2018-10-01T12:58:08.865Z,12
2018-10-01T12:59:18.316Z,8
2018-10-01T13:00:27.738Z,8
2018-10-01T13:01:37.003Z,8
2018-10-01T13:02:46.925Z,8
2018-10-01T13:03:56.473Z,8
2018-10-01T13:05:06.486Z,16
2018-10-01T13:06:16.367Z,16
2018-10-01T13:07:57.790Z,16
2018-10-01T13:09:08.073Z,12
2018-10-01T13:10:18.134Z,12
2018-10-01T13:11:27.566Z,12
2018-10-01T13:12:36.959Z,8
2018-10-01T13:13:45.927Z,8
2018-10-01T13:14:55.361Z,12
2018-10-01T13:16:04.835Z,8
2018-10-01T13:17:14.541Z,8
2018-10-01T13:18:24.348Z,8
2018-10-01T13:19:34.172Z,4
2018-10-01T13:20:43.391Z,4
2018-10-01T13:21:52.599Z,4
2018-10-01T13:23:02.398Z,4
2018-10-01T13:24:12.232Z,4
2018-10-01T13:25:22.718Z,4
2018-10-01T13:26:32.273Z,4
2018-10-01T13:27:42.111Z,0
2018-10-01T13:28:51.617Z,4
2018-10-01T13:30:01.611Z,4
2018-10-01T13:31:11.030Z,4
2018-10-01T13:32:20.565Z,4
2018-10-01T13:33:29.484Z,8
2018-10-01T13:34:38.930Z,12
2018-10-01T13:35:48.277Z,32
2018-10-01T13:36:57.575Z,16
2018-10-01T13:38:07.096Z,40
2018-10-01T13:39:16.393Z,44
2018-10-01T13:40:26.081Z,88
2018-10-01T13:41:36.092Z,84
2018-10-01T13:42:46.584Z,84
2018-10-01T13:43:56.586Z,88
2018-10-01T13:45:05.576Z,88
2018-10-01T13:46:16.196Z,88
2018-10-01T13:47:25.406Z,88
2018-10-01T13:48:35.295Z,88
2018-10-01T13:49:45.328Z,88
2018-10-01T13:50:54.762Z,88
2018-10-01T13:52:04.452Z,88
2018-10-01T13:53:14.892Z,84
2018-10-01T13:54:24.744Z,76
2018-10-01T13:55:34.458Z,36
2018-10-01T13:56:44.223Z,44
2018-10-01T13:57:54.484Z,4
2018-10-01T13:59:03.676Z,4
2018-10-01T14:00:14.816Z,8
2018-10-01T14:01:24.473Z,8
2018-10-01T14:02:34.883Z,12
2018-10-01T14:03:44.190Z,16
2018-10-01T14:04:53.740Z,12
2018-10-01T14:06:03.440Z,12
2018-10-01T14:07:13.582Z,8
2018-10-01T14:08:23.368Z,8
2018-10-01T14:09:33.822Z,12
2018-10-01T14:10:43.383Z,8
2018-10-01T14:11:53.264Z,12
2018-10-01T14:13:03.160Z,4
2018-10-01T14:14:13.009Z,4
2018-10-01T14:15:22.528Z,4
2018-10-01T14:16:32.245Z,4
2018-10-01T14:17:41.858Z,4
2018-10-01T14:18:51.566Z,4
2018-10-01T14:20:01.440Z,0
2018-10-01T14:21:10.802Z,4
2018-10-01T14:22:20.080Z,4
2018-10-01T14:23:30.635Z,0
2018-10-01T14:24:40.328Z,4
2018-10-01T14:25:49.676Z,4
2018-10-01T14:26:59.183Z,4
2018-10-01T14:28:08.643Z,4
2018-10-01T14:29:18.245Z,4
2018-10-01T14:30:27.969Z,8
2018-10-01T14:31:37.179Z,12
2018-10-01T14:32:46.608Z,8
2018-10-01T14:33:56.291Z,8
2018-10-01T14:35:06.077Z,8
2018-10-01T14:36:17.018Z,8
2018-10-01T14:37:26.607Z,8
2018-10-01T14:38:36.966Z,4
2018-10-01T14:39:46.405Z,8
2018-10-01T14:40:55.567Z,4
2018-10-01T14:42:05.109Z,4
2018-10-01T14:43:14.755Z,4
2018-10-01T14:44:23.976Z,4
2018-10-01T14:45:33.649Z,4
2018-10-01T14:46:43.070Z,4
2018-10-01T14:47:52.242Z,4
2018-10-01T14:49:01.707Z,4
2018-10-01T14:50:11.130Z,8
2018-10-01T14:51:20.942Z,8
2018-10-01T14:52:30.038Z,4
2018-10-01T14:53:39.474Z,4
2018-10-01T14:54:48.409Z,0
2018-10-01T14:55:57.829Z,4
2018-10-01T14:57:07.391Z,8
2018-10-01T14:58:16.035Z,8
2018-10-01T14:59:25.448Z,8
2018-10-01T15:00:35.746Z,8
2018-10-01T15:01:44.793Z,8
2018-10-01T15:02:54.281Z,8
2018-10-01T15:04:03.446Z,4
2018-10-01T15:05:13.157Z,4
2018-10-01T15:06:22.806Z,4
2018-10-01T15:07:31.987Z,4
2018-10-01T15:08:41.920Z,4
2018-10-01T15:09:51.344Z,4
2018-10-01T15:11:01.697Z,4
2018-10-01T15:12:12.021Z,8
2018-10-01T15:13:21.382Z,4
2018-10-01T15:14:30.030Z,8
2018-10-01T15:15:40.117Z,8
2018-10-01T15:16:49.300Z,8
2018-10-01T15:17:58.850Z,4
2018-10-01T15:19:08.522Z,4
2018-10-01T15:20:17.695Z,4
2018-10-01T15:21:27.123Z,4
2018-10-01T15:22:36.805Z,4
2018-10-01T15:23:46.543Z,4
2018-10-01T15:24:56.244Z,4
2018-10-01T15:26:05.674Z,0
2018-10-01T15:27:14.838Z,0
2018-10-01T15:28:24.279Z,4
2018-10-01T15:29:34.272Z,4
2018-10-01T15:30:44.226Z,4
2018-10-01T15:31:53.910Z,4
2018-10-01T15:33:03.336Z,4
2018-10-01T15:34:12.533Z,4
2018-10-01T15:35:22.179Z,4
2018-10-01T15:36:31.905Z,4
2018-10-01T15:37:41.675Z,4
2018-10-01T15:38:50.843Z,4
2018-10-01T15:40:00.265Z,4
2018-10-01T15:41:09.939Z,4
2018-10-01T15:42:19.021Z,4
2018-10-01T15:43:28.249Z,4
2018-10-01T15:44:37.940Z,4
2018-10-01T15:45:47.382Z,4
2018-10-01T15:46:57.079Z,4
2018-10-01T15:48:06.492Z,4
2018-10-01T15:49:15.666Z,4
2018-10-01T15:50:24.575Z,4
2018-10-01T15:51:34.513Z,4
2018-10-01T15:52:43.681Z,4
2018-10-01T15:53:53.612Z,4
2018-10-01T15:55:03.072Z,4
2018-10-01T15:56:12.607Z,0
2018-10-01T15:57:22.544Z,0
2018-10-01T15:58:31.972Z,4
2018-10-01T15:59:41.668Z,4
2018-10-01T16:00:51.092Z,4
2018-10-01T16:02:00.764Z,4
2018-10-01T16:03:09.971Z,4
2018-10-01T16:04:19.463Z,0
2018-10-01T16:05:28.636Z,0
2018-10-01T16:06:37.796Z,4
2018-10-01T16:07:47.461Z,4
2018-10-01T16:08:57.145Z,4
2018-10-01T16:10:06.559Z,4
2018-10-01T16:11:16.416Z,4
2018-10-01T16:12:26.010Z,0
2018-10-01T16:13:35.693Z,0
2018-10-01T16:14:45.631Z,4
2018-10-01T16:15:54.528Z,4
2018-10-01T16:17:04.202Z,4
2018-10-01T16:18:14.218Z,4
2018-10-01T16:19:23.758Z,0
2018-10-01T16:20:33.472Z,0
2018-10-01T16:21:42.641Z,0
2018-10-01T16:22:52.303Z,0
2018-10-01T16:24:01.463Z,4
2018-10-01T16:25:10.624Z,0
2018-10-01T16:26:20.286Z,0
2018-10-01T16:27:29.689Z,0
2018-10-01T16:28:39.366Z,0
2018-10-01T16:29:48.524Z,0
2018-10-01T16:30:57.944Z,0
2018-10-01T16:32:07.357Z,0
2018-10-01T16:33:17.021Z,0
2018-10-01T16:34:26.722Z,0
2018-10-01T16:35:36.141Z,0
2018-10-01T16:36:45.300Z,0
2018-10-01T16:37:54.991Z,0
2018-10-01T16:39:03.939Z,0
2018-10-01T16:40:13.346Z,0
2018-10-01T16:41:22.499Z,0
2018-10-01T16:42:32.223Z,0
2018-10-01T16:43:41.361Z,0
2018-10-01T16:44:51.033Z,0
2018-10-01T16:46:00.446Z,0
2018-10-01T16:47:09.856Z,0
2018-10-01T16:48:19.007Z,0
2018-10-01T16:49:28.342Z,0
2018-10-01T16:50:38.050Z,0
2018-10-01T16:51:47.776Z,0
2018-10-01T16:52:57.241Z,0
2018-10-01T16:54:06.162Z,0
2018-10-01T16:55:15.326Z,0
2018-10-01T16:56:24.230Z,0
2018-10-01T16:57:33.381Z,0
2018-10-01T16:58:42.539Z,0
2018-10-01T16:59:52.245Z,0
2018-10-01T17:01:01.403Z,0